sensor_id;sensor_type;location;lat;lon;timestamp;P1;durP1;ratioP1;P2;durP2;ratioP2
22314;SDS011;11325;55.686;37.566;2024-01-15T00:00:04;13.20;;;5.70;;
22314;SDS011;11325;55.686;37.566;2024-01-15T00:02:32;10.05;;;4.75;;
22314;SDS011;11325;55.686;37.566;2024-01-15T00:05:01;17.07;;;5.05;;
22314;SDS011;11325;55.686;37.566;2024-01-15T00:07:30;9.08;;;4.40;;
22314;SDS011;11325;55.686;37.566;2024-01-15T00:10:00;9.50;;;4.70;;
22314;SDS011;11325;55.686;37.566;2024-01-15T00:12:30;10.05;;;4.92;;
22314;SDS011;11325;55.686;37.566;2024-01-15T00:14:58;11.48;;;5.72;;
22314;SDS011;11325;55.686;37.566;2024-01-15T00:17:27;14.07;;;5.53;;
22314;SDS011;11325;55.686;37.566;2024-01-15T00:19:56;14.40;;;4.90;;
22314;SDS011;11325;55.686;37.566;2024-01-15T00:22:25;13.98;;;5.80;;
22314;SDS011;11325;55.686;37.566;2024-01-15T00:24:54;15.83;;;6.40;;
22314;SDS011;11325;55.686;37.566;2024-01-15T00:27:23;8.30;;;3.65;;
22314;SDS011;11325;55.686;37.566;2024-01-15T00:29:52;10.00;;;4.83;;
22314;SDS011;11325;55.686;37.566;2024-01-15T00:32:21;9.18;;;5.10;;
22314;SDS011;11325;55.686;37.566;2024-01-15T00:34:50;12.00;;;5.47;;
22314;SDS011;11325;55.686;37.566;2024-01-15T00:37:19;13.50;;;5.90;;
22314;SDS011;11325;55.686;37.566;2024-01-15T00:39:47;10.30;;;5.10;;
22314;SDS011;11325;55.686;37.566;2024-01-15T00:42:16;14.85;;;5.85;;
22314;SDS011;11325;55.686;37.566;2024-01-15T00:44:45;13.10;;;5.45;;
22314;SDS011;11325;55.686;37.566;2024-01-15T00:47:13;10.32;;;4.55;;
22314;SDS011;11325;55.686;37.566;2024-01-15T00:49:42;15.43;;;5.72;;
22314;SDS011;11325;55.686;37.566;2024-01-15T00:52:11;15.35;;;5.95;;
22314;SDS011;11325;55.686;37.566;2024-01-15T00:54:39;10.20;;;5.35;;
22314;SDS011;11325;55.686;37.566;2024-01-15T00:57:08;11.40;;;6.03;;
22314;SDS011;11325;55.686;37.566;2024-01-15T00:59:36;14.03;;;5.85;;
22314;SDS011;11325;55.686;37.566;2024-01-15T01:02:05;10.63;;;5.37;;
22314;SDS011;11325;55.686;37.566;2024-01-15T01:04:34;11.65;;;5.80;;
22314;SDS011;11325;55.686;37.566;2024-01-15T01:07:03;12.60;;;6.30;;
22314;SDS011;11325;55.686;37.566;2024-01-15T01:09:31;13.00;;;6.50;;
22314;SDS011;11325;55.686;37.566;2024-01-15T01:12:00;12.28;;;5.67;;
22314;SDS011;11325;55.686;37.566;2024-01-15T01:14:28;9.65;;;5.67;;
22314;SDS011;11325;55.686;37.566;2024-01-15T01:16:57;11.55;;;4.87;;
22314;SDS011;11325;55.686;37.566;2024-01-15T01:19:26;6.87;;;4.53;;
22314;SDS011;11325;55.686;37.566;2024-01-15T01:21:54;8.78;;;5.08;;
22314;SDS011;11325;55.686;37.566;2024-01-15T01:24:23;12.07;;;5.83;;
22314;SDS011;11325;55.686;37.566;2024-01-15T01:26:52;12.28;;;6.25;;
22314;SDS011;11325;55.686;37.566;2024-01-15T01:29:20;12.60;;;5.45;;
22314;SDS011;11325;55.686;37.566;2024-01-15T01:31:50;13.13;;;6.12;;
22314;SDS011;11325;55.686;37.566;2024-01-15T01:34:18;19.00;;;5.83;;
22314;SDS011;11325;55.686;37.566;2024-01-15T01:36:47;12.45;;;6.05;;
22314;SDS011;11325;55.686;37.566;2024-01-15T01:39:16;9.83;;;5.75;;
22314;SDS011;11325;55.686;37.566;2024-01-15T01:41:45;21.07;;;7.58;;
22314;SDS011;11325;55.686;37.566;2024-01-15T01:44:13;9.68;;;4.42;;
22314;SDS011;11325;55.686;37.566;2024-01-15T01:46:42;16.85;;;6.00;;
22314;SDS011;11325;55.686;37.566;2024-01-15T01:49:11;10.72;;;5.55;;
22314;SDS011;11325;55.686;37.566;2024-01-15T01:51:39;19.77;;;7.37;;
22314;SDS011;11325;55.686;37.566;2024-01-15T01:54:08;10.32;;;5.22;;
22314;SDS011;11325;55.686;37.566;2024-01-15T01:56:39;16.37;;;7.95;;
22314;SDS011;11325;55.686;37.566;2024-01-15T01:59:08;13.98;;;6.60;;
22314;SDS011;11325;55.686;37.566;2024-01-15T02:01:38;12.10;;;5.95;;
22314;SDS011;11325;55.686;37.566;2024-01-15T02:04:07;15.70;;;6.35;;
22314;SDS011;11325;55.686;37.566;2024-01-15T02:06:36;13.43;;;7.20;;
22314;SDS011;11325;55.686;37.566;2024-01-15T02:09:04;15.20;;;6.72;;
22314;SDS011;11325;55.686;37.566;2024-01-15T02:11:33;16.40;;;6.37;;
22314;SDS011;11325;55.686;37.566;2024-01-15T02:14:02;13.25;;;6.20;;
22314;SDS011;11325;55.686;37.566;2024-01-15T02:16:31;11.25;;;6.33;;
22314;SDS011;11325;55.686;37.566;2024-01-15T02:19:00;14.40;;;6.03;;
22314;SDS011;11325;55.686;37.566;2024-01-15T02:21:31;14.78;;;6.65;;
22314;SDS011;11325;55.686;37.566;2024-01-15T02:24:02;17.62;;;6.75;;
22314;SDS011;11325;55.686;37.566;2024-01-15T02:26:31;14.35;;;6.83;;
22314;SDS011;11325;55.686;37.566;2024-01-15T02:29:02;13.15;;;6.83;;
22314;SDS011;11325;55.686;37.566;2024-01-15T02:31:30;15.03;;;6.67;;
22314;SDS011;11325;55.686;37.566;2024-01-15T02:33:59;13.60;;;6.62;;
22314;SDS011;11325;55.686;37.566;2024-01-15T02:36:28;18.10;;;7.25;;
22314;SDS011;11325;55.686;37.566;2024-01-15T02:38:56;13.25;;;6.92;;
22314;SDS011;11325;55.686;37.566;2024-01-15T02:41:25;18.25;;;7.42;;
22314;SDS011;11325;55.686;37.566;2024-01-15T02:43:54;15.72;;;7.15;;
22314;SDS011;11325;55.686;37.566;2024-01-15T02:46:23;19.60;;;7.25;;
22314;SDS011;11325;55.686;37.566;2024-01-15T02:48:51;16.97;;;7.08;;
22314;SDS011;11325;55.686;37.566;2024-01-15T02:51:20;20.20;;;7.87;;
22314;SDS011;11325;55.686;37.566;2024-01-15T02:53:49;15.93;;;7.72;;
22314;SDS011;11325;55.686;37.566;2024-01-15T02:56:18;11.70;;;6.58;;
22314;SDS011;11325;55.686;37.566;2024-01-15T02:58:47;20.10;;;7.80;;
22314;SDS011;11325;55.686;37.566;2024-01-15T03:01:17;21.27;;;8.40;;
22314;SDS011;11325;55.686;37.566;2024-01-15T03:03:45;19.80;;;7.85;;
22314;SDS011;11325;55.686;37.566;2024-01-15T03:06:14;17.42;;;7.83;;
22314;SDS011;11325;55.686;37.566;2024-01-15T03:08:42;15.23;;;7.17;;
22314;SDS011;11325;55.686;37.566;2024-01-15T03:11:11;23.83;;;6.67;;
22314;SDS011;11325;55.686;37.566;2024-01-15T03:13:39;17.15;;;8.08;;
22314;SDS011;11325;55.686;37.566;2024-01-15T03:16:08;15.63;;;7.05;;
22314;SDS011;11325;55.686;37.566;2024-01-15T03:18:38;19.17;;;7.62;;
22314;SDS011;11325;55.686;37.566;2024-01-15T03:21:07;15.18;;;7.80;;
22314;SDS011;11325;55.686;37.566;2024-01-15T03:23:35;18.35;;;7.20;;
22314;SDS011;11325;55.686;37.566;2024-01-15T03:26:04;14.78;;;6.83;;
22314;SDS011;11325;55.686;37.566;2024-01-15T03:28:32;17.73;;;7.08;;
22314;SDS011;11325;55.686;37.566;2024-01-15T03:31:01;17.40;;;8.35;;
22314;SDS011;11325;55.686;37.566;2024-01-15T03:33:29;17.37;;;7.95;;
22314;SDS011;11325;55.686;37.566;2024-01-15T03:35:58;15.63;;;7.35;;
22314;SDS011;11325;55.686;37.566;2024-01-15T03:38:32;17.00;;;7.95;;
22314;SDS011;11325;55.686;37.566;2024-01-15T03:40:57;12.88;;;6.40;;
22314;SDS011;11325;55.686;37.566;2024-01-15T03:43:26;14.38;;;7.47;;
22314;SDS011;11325;55.686;37.566;2024-01-15T03:45:55;17.48;;;7.28;;
22314;SDS011;11325;55.686;37.566;2024-01-15T03:48:24;14.15;;;7.12;;
22314;SDS011;11325;55.686;37.566;2024-01-15T03:50:53;20.55;;;7.97;;
22314;SDS011;11325;55.686;37.566;2024-01-15T03:53:21;14.87;;;8.55;;
22314;SDS011;11325;55.686;37.566;2024-01-15T03:55:50;20.77;;;8.83;;
22314;SDS011;11325;55.686;37.566;2024-01-15T03:58:19;17.27;;;8.23;;
22314;SDS011;11325;55.686;37.566;2024-01-15T04:00:47;17.12;;;7.72;;
22314;SDS011;11325;55.686;37.566;2024-01-15T04:03:16;17.85;;;8.68;;
22314;SDS011;11325;55.686;37.566;2024-01-15T04:05:45;24.10;;;8.75;;
22314;SDS011;11325;55.686;37.566;2024-01-15T04:08:13;24.60;;;9.55;;
22314;SDS011;11325;55.686;37.566;2024-01-15T04:10:42;14.03;;;7.35;;
22314;SDS011;11325;55.686;37.566;2024-01-15T04:13:10;19.20;;;7.78;;
22314;SDS011;11325;55.686;37.566;2024-01-15T04:15:39;17.60;;;8.68;;
22314;SDS011;11325;55.686;37.566;2024-01-15T04:18:08;18.65;;;7.85;;
22314;SDS011;11325;55.686;37.566;2024-01-15T04:20:36;16.05;;;8.03;;
22314;SDS011;11325;55.686;37.566;2024-01-15T04:23:06;19.50;;;8.78;;
22314;SDS011;11325;55.686;37.566;2024-01-15T04:25:34;14.87;;;8.05;;
22314;SDS011;11325;55.686;37.566;2024-01-15T04:28:03;18.37;;;8.38;;
22314;SDS011;11325;55.686;37.566;2024-01-15T04:30:32;16.50;;;7.65;;
22314;SDS011;11325;55.686;37.566;2024-01-15T04:33:01;17.05;;;7.75;;
22314;SDS011;11325;55.686;37.566;2024-01-15T04:35:30;22.93;;;9.00;;
22314;SDS011;11325;55.686;37.566;2024-01-15T04:37:58;15.28;;;7.92;;
22314;SDS011;11325;55.686;37.566;2024-01-15T04:40:27;24.92;;;9.33;;
22314;SDS011;11325;55.686;37.566;2024-01-15T04:42:56;14.63;;;7.70;;
22314;SDS011;11325;55.686;37.566;2024-01-15T04:45:24;17.70;;;8.88;;
22314;SDS011;11325;55.686;37.566;2024-01-15T04:47:54;15.03;;;7.00;;
22314;SDS011;11325;55.686;37.566;2024-01-15T04:50:26;16.57;;;7.03;;
22314;SDS011;11325;55.686;37.566;2024-01-15T04:52:55;14.93;;;8.03;;
22314;SDS011;11325;55.686;37.566;2024-01-15T04:55:23;14.78;;;7.75;;
22314;SDS011;11325;55.686;37.566;2024-01-15T04:57:52;19.12;;;8.63;;
22314;SDS011;11325;55.686;37.566;2024-01-15T05:00:21;15.80;;;8.08;;
22314;SDS011;11325;55.686;37.566;2024-01-15T05:02:49;13.00;;;6.55;;
22314;SDS011;11325;55.686;37.566;2024-01-15T05:05:18;18.05;;;8.58;;
22314;SDS011;11325;55.686;37.566;2024-01-15T05:07:47;15.32;;;7.67;;
22314;SDS011;11325;55.686;37.566;2024-01-15T05:10:15;17.65;;;7.33;;
22314;SDS011;11325;55.686;37.566;2024-01-15T05:12:44;19.85;;;8.53;;
22314;SDS011;11325;55.686;37.566;2024-01-15T05:15:12;24.20;;;8.30;;
22314;SDS011;11325;55.686;37.566;2024-01-15T05:17:41;16.82;;;8.85;;
22314;SDS011;11325;55.686;37.566;2024-01-15T05:20:10;18.32;;;9.40;;
22314;SDS011;11325;55.686;37.566;2024-01-15T05:22:39;19.45;;;8.88;;
22314;SDS011;11325;55.686;37.566;2024-01-15T05:25:08;17.92;;;7.30;;
22314;SDS011;11325;55.686;37.566;2024-01-15T05:27:37;20.15;;;8.58;;
22314;SDS011;11325;55.686;37.566;2024-01-15T05:30:06;21.42;;;9.13;;
22314;SDS011;11325;55.686;37.566;2024-01-15T05:32:35;17.57;;;9.35;;
22314;SDS011;11325;55.686;37.566;2024-01-15T05:35:04;15.95;;;8.03;;
22314;SDS011;11325;55.686;37.566;2024-01-15T05:37:32;20.62;;;9.85;;
22314;SDS011;11325;55.686;37.566;2024-01-15T05:40:01;19.62;;;8.68;;
22314;SDS011;11325;55.686;37.566;2024-01-15T05:42:31;20.85;;;8.50;;
22314;SDS011;11325;55.686;37.566;2024-01-15T05:45:00;19.10;;;8.80;;
22314;SDS011;11325;55.686;37.566;2024-01-15T05:47:30;20.35;;;9.65;;
22314;SDS011;11325;55.686;37.566;2024-01-15T05:50:00;16.67;;;8.08;;
22314;SDS011;11325;55.686;37.566;2024-01-15T05:52:30;18.80;;;8.90;;
22314;SDS011;11325;55.686;37.566;2024-01-15T05:54:59;18.95;;;8.50;;
22314;SDS011;11325;55.686;37.566;2024-01-15T05:57:29;18.90;;;9.40;;
22314;SDS011;11325;55.686;37.566;2024-01-15T05:59:58;21.97;;;9.95;;
22314;SDS011;11325;55.686;37.566;2024-01-15T06:02:28;17.60;;;8.85;;
22314;SDS011;11325;55.686;37.566;2024-01-15T06:04:56;17.55;;;8.30;;
22314;SDS011;11325;55.686;37.566;2024-01-15T06:07:25;19.05;;;9.80;;
22314;SDS011;11325;55.686;37.566;2024-01-15T06:09:54;23.07;;;10.05;;
22314;SDS011;11325;55.686;37.566;2024-01-15T06:12:24;16.70;;;8.48;;
22314;SDS011;11325;55.686;37.566;2024-01-15T06:14:53;16.95;;;8.40;;
22314;SDS011;11325;55.686;37.566;2024-01-15T06:17:21;20.90;;;9.73;;
22314;SDS011;11325;55.686;37.566;2024-01-15T06:19:50;20.08;;;8.80;;
22314;SDS011;11325;55.686;37.566;2024-01-15T06:22:19;25.70;;;10.70;;
22314;SDS011;11325;55.686;37.566;2024-01-15T06:24:47;19.20;;;8.95;;
22314;SDS011;11325;55.686;37.566;2024-01-15T06:27:16;16.80;;;8.75;;
22314;SDS011;11325;55.686;37.566;2024-01-15T06:29:45;19.65;;;9.18;;
22314;SDS011;11325;55.686;37.566;2024-01-15T06:32:15;20.68;;;8.98;;
22314;SDS011;11325;55.686;37.566;2024-01-15T06:34:44;19.90;;;9.25;;
22314;SDS011;11325;55.686;37.566;2024-01-15T06:37:13;18.82;;;8.50;;
22314;SDS011;11325;55.686;37.566;2024-01-15T06:39:42;20.08;;;9.00;;
22314;SDS011;11325;55.686;37.566;2024-01-15T06:42:10;16.70;;;8.25;;
22314;SDS011;11325;55.686;37.566;2024-01-15T06:44:39;19.50;;;9.23;;
22314;SDS011;11325;55.686;37.566;2024-01-15T06:47:07;16.65;;;7.75;;
22314;SDS011;11325;55.686;37.566;2024-01-15T06:49:36;20.00;;;8.78;;
22314;SDS011;11325;55.686;37.566;2024-01-15T06:52:05;17.12;;;9.08;;
22314;SDS011;11325;55.686;37.566;2024-01-15T06:54:34;19.30;;;9.63;;
22314;SDS011;11325;55.686;37.566;2024-01-15T06:57:03;22.65;;;9.55;;
22314;SDS011;11325;55.686;37.566;2024-01-15T06:59:31;19.55;;;9.43;;
22314;SDS011;11325;55.686;37.566;2024-01-15T07:02:00;19.57;;;9.20;;
22314;SDS011;11325;55.686;37.566;2024-01-15T07:04:28;17.98;;;9.40;;
22314;SDS011;11325;55.686;37.566;2024-01-15T07:06:57;17.82;;;9.25;;
22314;SDS011;11325;55.686;37.566;2024-01-15T07:09:27;17.42;;;8.58;;
22314;SDS011;11325;55.686;37.566;2024-01-15T07:11:56;17.90;;;9.35;;
22314;SDS011;11325;55.686;37.566;2024-01-15T07:14:25;18.98;;;9.03;;
22314;SDS011;11325;55.686;37.566;2024-01-15T07:16:54;20.85;;;8.85;;
22314;SDS011;11325;55.686;37.566;2024-01-15T07:19:22;21.62;;;9.23;;
22314;SDS011;11325;55.686;37.566;2024-01-15T07:21:51;21.23;;;10.10;;
22314;SDS011;11325;55.686;37.566;2024-01-15T07:24:19;18.70;;;9.13;;
22314;SDS011;11325;55.686;37.566;2024-01-15T07:26:48;17.90;;;8.93;;
22314;SDS011;11325;55.686;37.566;2024-01-15T07:29:16;23.83;;;9.88;;
22314;SDS011;11325;55.686;37.566;2024-01-15T07:31:49;20.95;;;10.55;;
22314;SDS011;11325;55.686;37.566;2024-01-15T07:34:18;18.85;;;8.80;;
22314;SDS011;11325;55.686;37.566;2024-01-15T07:36:46;25.97;;;10.65;;
22314;SDS011;11325;55.686;37.566;2024-01-15T07:39:15;20.90;;;10.08;;
22314;SDS011;11325;55.686;37.566;2024-01-15T07:41:43;21.60;;;9.30;;
22314;SDS011;11325;55.686;37.566;2024-01-15T07:44:12;19.27;;;9.05;;
22314;SDS011;11325;55.686;37.566;2024-01-15T07:46:44;16.40;;;8.45;;
22314;SDS011;11325;55.686;37.566;2024-01-15T07:49:11;24.25;;;9.90;;
22314;SDS011;11325;55.686;37.566;2024-01-15T07:51:39;20.00;;;9.45;;
22314;SDS011;11325;55.686;37.566;2024-01-15T07:54:08;18.65;;;9.73;;
22314;SDS011;11325;55.686;37.566;2024-01-15T07:56:52;20.97;;;9.18;;
22314;SDS011;11325;55.686;37.566;2024-01-15T07:59:06;17.57;;;9.25;;
22314;SDS011;11325;55.686;37.566;2024-01-15T08:01:35;20.10;;;9.60;;
22314;SDS011;11325;55.686;37.566;2024-01-15T08:04:03;17.57;;;9.00;;
22314;SDS011;11325;55.686;37.566;2024-01-15T08:06:32;18.73;;;9.38;;
22314;SDS011;11325;55.686;37.566;2024-01-15T08:09:00;21.02;;;9.08;;
22314;SDS011;11325;55.686;37.566;2024-01-15T08:11:30;17.65;;;10.15;;
22314;SDS011;11325;55.686;37.566;2024-01-15T08:13:59;17.17;;;8.98;;
22314;SDS011;11325;55.686;37.566;2024-01-15T08:16:28;19.80;;;9.83;;
22314;SDS011;11325;55.686;37.566;2024-01-15T08:18:56;21.20;;;10.32;;
22314;SDS011;11325;55.686;37.566;2024-01-15T08:21:25;17.62;;;9.60;;
22314;SDS011;11325;55.686;37.566;2024-01-15T08:24:00;25.72;;;10.68;;
22314;SDS011;11325;55.686;37.566;2024-01-15T08:26:25;18.15;;;9.03;;
22314;SDS011;11325;55.686;37.566;2024-01-15T08:28:53;24.77;;;10.58;;
22314;SDS011;11325;55.686;37.566;2024-01-15T08:31:22;20.72;;;9.90;;
22314;SDS011;11325;55.686;37.566;2024-01-15T08:33:51;17.35;;;8.55;;
22314;SDS011;11325;55.686;37.566;2024-01-15T08:36:20;19.73;;;8.58;;
22314;SDS011;11325;55.686;37.566;2024-01-15T08:38:50;17.75;;;8.75;;
22314;SDS011;11325;55.686;37.566;2024-01-15T08:41:19;17.15;;;8.05;;
22314;SDS011;11325;55.686;37.566;2024-01-15T08:43:48;20.10;;;9.75;;
22314;SDS011;11325;55.686;37.566;2024-01-15T08:46:16;24.37;;;10.98;;
22314;SDS011;11325;55.686;37.566;2024-01-15T08:48:45;18.95;;;9.53;;
22314;SDS011;11325;55.686;37.566;2024-01-15T08:51:14;22.13;;;9.68;;
22314;SDS011;11325;55.686;37.566;2024-01-15T08:53:42;23.18;;;11.03;;
22314;SDS011;11325;55.686;37.566;2024-01-15T08:56:11;20.37;;;9.40;;
22314;SDS011;11325;55.686;37.566;2024-01-15T08:58:39;22.20;;;9.40;;
22314;SDS011;11325;55.686;37.566;2024-01-15T09:01:08;20.62;;;9.25;;
22314;SDS011;11325;55.686;37.566;2024-01-15T09:03:37;20.23;;;9.38;;
22314;SDS011;11325;55.686;37.566;2024-01-15T09:06:05;16.60;;;9.03;;
22314;SDS011;11325;55.686;37.566;2024-01-15T09:08:35;17.60;;;9.45;;
22314;SDS011;11325;55.686;37.566;2024-01-15T09:11:04;14.03;;;7.67;;
22314;SDS011;11325;55.686;37.566;2024-01-15T09:13:32;19.25;;;9.80;;
22314;SDS011;11325;55.686;37.566;2024-01-15T09:16:01;23.98;;;10.48;;
22314;SDS011;11325;55.686;37.566;2024-01-15T09:18:30;25.00;;;9.88;;
22314;SDS011;11325;55.686;37.566;2024-01-15T09:21:00;22.50;;;8.78;;
22314;SDS011;11325;55.686;37.566;2024-01-15T09:23:28;15.15;;;8.70;;
22314;SDS011;11325;55.686;37.566;2024-01-15T09:25:57;23.65;;;8.98;;
22314;SDS011;11325;55.686;37.566;2024-01-15T09:28:25;17.25;;;8.53;;
22314;SDS011;11325;55.686;37.566;2024-01-15T09:30:54;18.07;;;8.58;;
22314;SDS011;11325;55.686;37.566;2024-01-15T09:33:23;19.60;;;9.00;;
22314;SDS011;11325;55.686;37.566;2024-01-15T09:35:52;20.72;;;8.98;;
22314;SDS011;11325;55.686;37.566;2024-01-15T09:38:20;22.45;;;9.00;;
22314;SDS011;11325;55.686;37.566;2024-01-15T09:40:49;18.50;;;9.30;;
22314;SDS011;11325;55.686;37.566;2024-01-15T09:43:18;16.37;;;8.50;;
22314;SDS011;11325;55.686;37.566;2024-01-15T09:45:47;18.50;;;9.58;;
22314;SDS011;11325;55.686;37.566;2024-01-15T09:48:16;20.77;;;9.65;;
22314;SDS011;11325;55.686;37.566;2024-01-15T09:50:46;20.52;;;9.05;;
22314;SDS011;11325;55.686;37.566;2024-01-15T09:53:15;16.30;;;8.70;;
22314;SDS011;11325;55.686;37.566;2024-01-15T09:55:44;17.20;;;8.88;;
22314;SDS011;11325;55.686;37.566;2024-01-15T09:58:13;18.60;;;10.20;;
22314;SDS011;11325;55.686;37.566;2024-01-15T10:00:41;15.95;;;7.75;;
22314;SDS011;11325;55.686;37.566;2024-01-15T10:03:11;14.47;;;8.30;;
22314;SDS011;11325;55.686;37.566;2024-01-15T10:05:39;16.23;;;7.85;;
22314;SDS011;11325;55.686;37.566;2024-01-15T10:08:08;16.82;;;8.00;;
22314;SDS011;11325;55.686;37.566;2024-01-15T10:10:38;19.62;;;8.98;;
22314;SDS011;11325;55.686;37.566;2024-01-15T10:13:07;20.08;;;9.20;;
22314;SDS011;11325;55.686;37.566;2024-01-15T10:15:37;21.27;;;10.25;;
22314;SDS011;11325;55.686;37.566;2024-01-15T10:18:06;17.98;;;8.33;;
22314;SDS011;11325;55.686;37.566;2024-01-15T10:20:35;19.65;;;8.45;;
22314;SDS011;11325;55.686;37.566;2024-01-15T10:23:03;20.40;;;8.93;;
22314;SDS011;11325;55.686;37.566;2024-01-15T10:25:32;20.90;;;9.43;;
22314;SDS011;11325;55.686;37.566;2024-01-15T10:28:01;19.35;;;10.03;;
22314;SDS011;11325;55.686;37.566;2024-01-15T10:30:30;18.20;;;8.05;;
22314;SDS011;11325;55.686;37.566;2024-01-15T10:33:00;23.85;;;10.13;;
22314;SDS011;11325;55.686;37.566;2024-01-15T10:35:33;17.75;;;9.38;;
22314;SDS011;11325;55.686;37.566;2024-01-15T10:38:00;19.77;;;8.88;;
22314;SDS011;11325;55.686;37.566;2024-01-15T10:40:28;16.70;;;8.63;;
22314;SDS011;11325;55.686;37.566;2024-01-15T10:42:57;19.27;;;9.25;;
22314;SDS011;11325;55.686;37.566;2024-01-15T10:45:26;16.23;;;8.38;;
22314;SDS011;11325;55.686;37.566;2024-01-15T10:47:54;17.20;;;7.80;;
22314;SDS011;11325;55.686;37.566;2024-01-15T10:50:25;24.15;;;9.28;;
22314;SDS011;11325;55.686;37.566;2024-01-15T10:52:53;19.40;;;9.40;;
22314;SDS011;11325;55.686;37.566;2024-01-15T10:55:23;21.73;;;9.63;;
22314;SDS011;11325;55.686;37.566;2024-01-15T10:57:51;23.62;;;9.00;;
22314;SDS011;11325;55.686;37.566;2024-01-15T11:00:20;23.87;;;9.83;;
22314;SDS011;11325;55.686;37.566;2024-01-15T11:02:51;23.00;;;10.32;;
22314;SDS011;11325;55.686;37.566;2024-01-15T11:05:22;17.48;;;7.85;;
22314;SDS011;11325;55.686;37.566;2024-01-15T11:07:50;20.08;;;9.90;;
22314;SDS011;11325;55.686;37.566;2024-01-15T11:13:01;18.02;;;8.60;;
22314;SDS011;11325;55.686;37.566;2024-01-15T11:15:30;20.32;;;8.73;;
22314;SDS011;11325;55.686;37.566;2024-01-15T11:17:59;20.65;;;9.98;;
22314;SDS011;11325;55.686;37.566;2024-01-15T11:20:28;19.10;;;8.95;;
22314;SDS011;11325;55.686;37.566;2024-01-15T11:22:58;20.17;;;9.55;;
22314;SDS011;11325;55.686;37.566;2024-01-15T11:25:34;19.25;;;8.63;;
22314;SDS011;11325;55.686;37.566;2024-01-15T11:27:57;22.62;;;9.98;;
22314;SDS011;11325;55.686;37.566;2024-01-15T11:30:25;19.32;;;9.15;;
22314;SDS011;11325;55.686;37.566;2024-01-15T11:32:54;18.87;;;8.95;;
22314;SDS011;11325;55.686;37.566;2024-01-15T11:35:22;17.87;;;9.23;;
22314;SDS011;11325;55.686;37.566;2024-01-15T11:40:44;21.57;;;9.95;;
22314;SDS011;11325;55.686;37.566;2024-01-15T11:42:52;19.10;;;9.20;;
22314;SDS011;11325;55.686;37.566;2024-01-15T11:45:20;18.07;;;9.38;;
22314;SDS011;11325;55.686;37.566;2024-01-15T11:50:26;21.93;;;9.90;;
22314;SDS011;11325;55.686;37.566;2024-01-15T11:52:58;21.23;;;10.32;;
22314;SDS011;11325;55.686;37.566;2024-01-15T11:57:58;18.17;;;7.92;;
22314;SDS011;11325;55.686;37.566;2024-01-15T12:00:28;20.48;;;9.30;;
22314;SDS011;11325;55.686;37.566;2024-01-15T12:02:58;17.92;;;8.73;;
22314;SDS011;11325;55.686;37.566;2024-01-15T12:05:27;15.60;;;7.85;;
22314;SDS011;11325;55.686;37.566;2024-01-15T12:07:56;22.55;;;9.50;;
22314;SDS011;11325;55.686;37.566;2024-01-15T12:10:25;18.60;;;9.08;;
22314;SDS011;11325;55.686;37.566;2024-01-15T12:12:54;20.88;;;9.65;;
22314;SDS011;11325;55.686;37.566;2024-01-15T12:15:23;22.60;;;9.25;;
22314;SDS011;11325;55.686;37.566;2024-01-15T12:17:54;19.87;;;8.90;;
22314;SDS011;11325;55.686;37.566;2024-01-15T12:20:24;17.00;;;8.38;;
22314;SDS011;11325;55.686;37.566;2024-01-15T12:22:52;17.10;;;9.00;;
22314;SDS011;11325;55.686;37.566;2024-01-15T12:25:23;16.17;;;8.73;;
22314;SDS011;11325;55.686;37.566;2024-01-15T12:27:51;16.35;;;8.38;;
22314;SDS011;11325;55.686;37.566;2024-01-15T12:30:23;21.25;;;9.78;;
22314;SDS011;11325;55.686;37.566;2024-01-15T12:32:54;15.35;;;8.83;;
22314;SDS011;11325;55.686;37.566;2024-01-15T12:35:23;16.07;;;7.75;;
22314;SDS011;11325;55.686;37.566;2024-01-15T12:37:54;20.12;;;8.53;;
22314;SDS011;11325;55.686;37.566;2024-01-15T12:40:23;19.70;;;9.05;;
22314;SDS011;11325;55.686;37.566;2024-01-15T12:42:52;19.55;;;9.28;;
22314;SDS011;11325;55.686;37.566;2024-01-15T12:45:21;17.95;;;9.65;;
22314;SDS011;11325;55.686;37.566;2024-01-15T12:47:49;18.12;;;9.15;;
22314;SDS011;11325;55.686;37.566;2024-01-15T12:50:18;24.23;;;9.70;;
22314;SDS011;11325;55.686;37.566;2024-01-15T12:52:47;18.45;;;9.00;;
22314;SDS011;11325;55.686;37.566;2024-01-15T12:55:16;19.82;;;10.20;;
22314;SDS011;11325;55.686;37.566;2024-01-15T12:57:44;21.75;;;10.70;;
22314;SDS011;11325;55.686;37.566;2024-01-15T13:00:13;16.27;;;8.63;;
22314;SDS011;11325;55.686;37.566;2024-01-15T13:02:42;20.57;;;9.95;;
22314;SDS011;11325;55.686;37.566;2024-01-15T13:05:11;19.15;;;9.93;;
22314;SDS011;11325;55.686;37.566;2024-01-15T13:07:40;21.07;;;9.38;;
22314;SDS011;11325;55.686;37.566;2024-01-15T13:10:09;27.05;;;10.60;;
22314;SDS011;11325;55.686;37.566;2024-01-15T13:12:38;23.50;;;10.10;;
22314;SDS011;11325;55.686;37.566;2024-01-15T13:15:07;18.42;;;9.75;;
22314;SDS011;11325;55.686;37.566;2024-01-15T13:17:38;17.00;;;8.10;;
22314;SDS011;11325;55.686;37.566;2024-01-15T13:20:07;20.02;;;9.88;;
22314;SDS011;11325;55.686;37.566;2024-01-15T13:22:36;20.92;;;9.98;;
22314;SDS011;11325;55.686;37.566;2024-01-15T13:25:06;19.27;;;9.68;;
22314;SDS011;11325;55.686;37.566;2024-01-15T13:27:35;22.55;;;9.78;;
22314;SDS011;11325;55.686;37.566;2024-01-15T13:30:04;21.25;;;9.70;;
22314;SDS011;11325;55.686;37.566;2024-01-15T13:32:33;25.52;;;10.88;;
22314;SDS011;11325;55.686;37.566;2024-01-15T13:35:03;21.37;;;9.88;;
22314;SDS011;11325;55.686;37.566;2024-01-15T13:37:33;19.02;;;9.48;;
22314;SDS011;11325;55.686;37.566;2024-01-15T13:40:01;15.93;;;8.35;;
22314;SDS011;11325;55.686;37.566;2024-01-15T13:42:31;20.68;;;10.50;;
22314;SDS011;11325;55.686;37.566;2024-01-15T13:45:00;19.42;;;10.23;;
22314;SDS011;11325;55.686;37.566;2024-01-15T13:47:30;25.48;;;9.80;;
22314;SDS011;11325;55.686;37.566;2024-01-15T13:49:59;29.12;;;11.15;;
22314;SDS011;11325;55.686;37.566;2024-01-15T13:52:28;19.67;;;11.10;;
22314;SDS011;11325;55.686;37.566;2024-01-15T13:54:56;19.65;;;10.85;;
22314;SDS011;11325;55.686;37.566;2024-01-15T13:57:25;24.05;;;11.20;;
22314;SDS011;11325;55.686;37.566;2024-01-15T13:59:53;29.23;;;11.73;;
22314;SDS011;11325;55.686;37.566;2024-01-15T14:02:22;16.55;;;9.18;;
22314;SDS011;11325;55.686;37.566;2024-01-15T14:04:53;22.30;;;10.65;;
22314;SDS011;11325;55.686;37.566;2024-01-15T14:07:21;27.32;;;11.63;;
22314;SDS011;11325;55.686;37.566;2024-01-15T14:09:50;19.80;;;10.13;;
22314;SDS011;11325;55.686;37.566;2024-01-15T14:12:19;20.55;;;9.83;;
22314;SDS011;11325;55.686;37.566;2024-01-15T14:14:47;24.35;;;11.15;;
22314;SDS011;11325;55.686;37.566;2024-01-15T14:17:17;22.27;;;10.80;;
22314;SDS011;11325;55.686;37.566;2024-01-15T14:19:45;23.50;;;10.82;;
22314;SDS011;11325;55.686;37.566;2024-01-15T14:22:14;26.00;;;10.95;;
22314;SDS011;11325;55.686;37.566;2024-01-15T14:24:43;20.43;;;9.45;;
22314;SDS011;11325;55.686;37.566;2024-01-15T14:27:11;17.48;;;9.63;;
22314;SDS011;11325;55.686;37.566;2024-01-15T14:29:40;22.10;;;10.28;;
22314;SDS011;11325;55.686;37.566;2024-01-15T14:32:09;22.15;;;10.43;;
22314;SDS011;11325;55.686;37.566;2024-01-15T14:34:37;21.30;;;10.65;;
22314;SDS011;11325;55.686;37.566;2024-01-15T14:37:06;29.27;;;12.15;;
22314;SDS011;11325;55.686;37.566;2024-01-15T14:39:34;24.25;;;11.35;;